Urb El Guayabal, Puerto Rico
Current Conditions -  °F | °C
As of 5:50 PM on Thursday 23 Oct 2014 (Local Time) from TJBQ Reporting Station
Drizzle Drizzle  
Wind Chill: 81°   Ceiling: 2900
Heat Index: 86°   Visibility: 7mi
Dew Point: 75°   Wind: 5mph
Humidity: 84%   Direction: 130°SE
Pressure: 29.91"   Gusts: NA
Location:  18.3413°N, 66.991°W
Report Text: TJBQ 232150Z 13004KT 7SM -DZ SCT024 BKN029 OVC041 27/24 A2991 RMK RWY08 CLSD - ATIS M
Loading
Personal Weather Stations






























Interactive Weather Map
Tropical Storm Tracking
New forecast layout! Learn more

10-Day Weather Forecast

Advertisements
Track Severe Weather on mobile